createdAt,value
2022-11-19T00:01:14.941Z,99626.13
2022-11-19T00:03:42.631Z,99625.44
2022-11-19T00:06:13.006Z,99626.59
2022-11-19T00:08:40.400Z,99633.94
2022-11-19T00:11:15.655Z,99646.50
2022-11-19T00:13:43.553Z,99653.06
2022-11-19T00:16:14.726Z,99644.56
2022-11-19T00:18:41.929Z,99641.63
2022-11-19T00:21:13.492Z,99666.91
2022-11-19T00:23:41.041Z,99671.84
2022-11-19T00:26:12.720Z,99665.06
2022-11-19T00:28:40.514Z,99671.72
2022-11-19T00:31:09.556Z,99677.78
2022-11-19T00:33:37.587Z,99684.78
2022-11-19T00:36:05.730Z,99675.41
2022-11-19T00:38:32.703Z,99681.81
2022-11-19T00:40:59.528Z,99690.69
2022-11-19T00:43:45.481Z,99676.81
2022-11-19T00:46:15.766Z,99682.69
2022-11-19T00:48:42.783Z,99695.41
2022-11-19T00:51:10.587Z,99698.44
2022-11-19T00:53:37.967Z,99697.53
2022-11-19T00:56:07.990Z,99708.50
2022-11-19T00:58:35.037Z,99713.38
2022-11-19T01:01:01.999Z,99705.34
2022-11-19T01:03:29.276Z,99719.09
2022-11-19T01:05:56.103Z,99715.38
2022-11-19T01:08:23.383Z,99716.78
2022-11-19T01:10:50.256Z,99718.88
2022-11-19T01:13:35.339Z,99717.00
2022-11-19T01:16:10.932Z,99729.00
2022-11-19T01:18:39.441Z,99730.41
2022-11-19T01:21:07.175Z,99726.09
2022-11-19T01:23:34.483Z,99720.97
2022-11-19T01:26:01.371Z,99720.13
2022-11-19T01:28:28.629Z,99717.81
2022-11-19T01:30:55.718Z,99724.81
2022-11-19T01:33:22.843Z,99721.31
2022-11-19T01:36:04.498Z,99729.56
2022-11-19T01:38:31.759Z,99734.47
2022-11-19T01:41:00.128Z,99733.47
2022-11-19T01:43:48.610Z,99743.22
2022-11-19T01:46:17.829Z,99736.34
2022-11-19T01:48:50.001Z,99742.97
2022-11-19T01:51:20.342Z,99738.06
2022-11-19T01:53:48.967Z,99731.44
2022-11-19T01:56:18.590Z,99743.66
2022-11-19T01:58:48.116Z,99747.06
2022-11-19T02:01:16.358Z,99744.59
2022-11-19T02:03:43.775Z,99745.53
2022-11-19T02:06:11.850Z,99753.47
2022-11-19T02:08:43.271Z,99756.59
2022-11-19T02:11:13.045Z,99752.66
2022-11-19T02:14:23.051Z,99765.22
2022-11-19T02:17:01.904Z,99761.25
2022-11-19T02:19:37.526Z,99754.03
2022-11-19T02:22:26.512Z,99750.13
2022-11-19T02:24:54.525Z,99746.13
2022-11-19T02:27:51.712Z,99757.28
2022-11-19T02:30:19.690Z,99763.69
2022-11-19T02:32:58.949Z,99768.81
2022-11-19T02:35:32.167Z,99776.50
2022-11-19T02:38:06.262Z,99773.25
2022-11-19T02:40:39.087Z,99774.47
2022-11-19T02:43:11.797Z,99771.72
2022-11-19T02:45:43.550Z,99781.94
2022-11-19T02:48:23.263Z,99788.88
2022-11-19T02:50:53.185Z,99784.25
2022-11-19T02:53:20.055Z,99795.81
2022-11-19T02:56:07.004Z,99801.19
2022-11-19T02:58:56.808Z,99797.47
2022-11-19T03:01:43.271Z,99809.66
2022-11-19T03:04:30.064Z,99799.13
2022-11-19T03:07:00.277Z,99803.84
2022-11-19T03:09:27.618Z,99797.47
2022-11-19T03:12:04.395Z,99822.91
2022-11-19T03:14:55.730Z,99825.97
2022-11-19T03:17:32.565Z,99820.00
2022-11-19T03:20:15.072Z,99820.00
2022-11-19T03:22:54.679Z,99836.81
2022-11-19T03:25:29.176Z,99815.25
2022-11-19T03:28:00.055Z,99825.97
2022-11-19T03:30:27.789Z,99815.63
2022-11-19T03:32:59.886Z,99830.84
2022-11-19T03:35:30.572Z,99828.84
2022-11-19T03:38:00.379Z,99832.72
2022-11-19T03:40:28.249Z,99841.34
2022-11-19T03:42:56.175Z,99832.72
2022-11-19T03:45:26.335Z,99837.25
2022-11-19T03:47:54.056Z,99831.44
2022-11-19T03:50:23.488Z,99862.47
2022-11-19T03:52:50.393Z,99840.06
2022-11-19T03:55:17.327Z,99858.16
2022-11-19T03:57:44.551Z,99845.19
2022-11-19T04:00:11.803Z,99856.47
2022-11-19T04:02:41.923Z,99839.97
2022-11-19T04:05:09.442Z,99853.81
2022-11-19T04:07:36.285Z,99863.38
2022-11-19T04:10:03.209Z,99857.00
2022-11-19T04:12:29.992Z,99854.72
2022-11-19T04:14:56.811Z,99861.34
2022-11-19T04:17:23.623Z,99866.66
2022-11-19T04:19:50.374Z,99873.47
2022-11-19T04:22:17.288Z,99871.31
2022-11-19T04:24:44.065Z,99872.06
2022-11-19T04:27:11.005Z,99870.56
2022-11-19T04:29:37.825Z,99875.94
2022-11-19T04:32:04.950Z,99885.06
2022-11-19T04:34:31.706Z,99879.50
2022-11-19T04:36:58.476Z,99894.97
2022-11-19T04:39:25.309Z,99894.97
2022-11-19T04:41:52.032Z,99900.91
2022-11-19T04:44:18.777Z,99893.47
2022-11-19T04:46:45.476Z,99889.97
2022-11-19T04:49:12.361Z,99901.97
2022-11-19T04:51:39.231Z,99906.88
2022-11-19T04:54:08.721Z,99906.63
2022-11-19T04:56:36.410Z,99913.22
2022-11-19T04:59:04.119Z,99905.59
2022-11-19T05:01:30.893Z,99908.50
2022-11-19T05:03:57.665Z,99913.84
2022-11-19T05:06:24.389Z,99923.75
2022-11-19T05:08:51.131Z,99934.91
2022-11-19T05:11:17.906Z,99931.19
2022-11-19T05:13:44.704Z,99943.38
2022-11-19T05:16:15.069Z,99939.66
2022-11-19T05:18:43.313Z,99940.31
2022-11-19T05:21:10.152Z,99937.81
2022-11-19T05:23:37.043Z,99939.50
2022-11-19T05:26:03.779Z,99936.00
2022-11-19T05:28:38.958Z,99934.41
2022-11-19T05:31:07.195Z,99947.25
2022-11-19T05:33:34.664Z,99956.75
2022-11-19T05:36:02.442Z,99953.69
2022-11-19T05:38:29.386Z,99969.50
2022-11-19T05:40:56.287Z,99957.19
2022-11-19T05:43:23.062Z,99962.75
2022-11-19T05:45:49.961Z,99969.16
2022-11-19T05:48:16.712Z,99959.94
2022-11-19T05:50:43.938Z,99969.81
2022-11-19T05:53:10.913Z,99970.22
2022-11-19T05:55:37.732Z,99965.69
2022-11-19T05:58:04.449Z,99973.13
2022-11-19T06:00:31.249Z,99969.31
2022-11-19T06:02:58.008Z,99963.81
2022-11-19T06:05:24.889Z,99970.97
2022-11-19T06:07:51.644Z,99967.25
2022-11-19T06:10:18.497Z,99972.88
2022-11-19T06:12:46.065Z,99981.94
2022-11-19T06:15:14.228Z,99986.03
2022-11-19T06:17:41.094Z,99987.06
2022-11-19T06:20:11.341Z,99980.91
2022-11-19T06:22:38.863Z,99983.59
2022-11-19T06:25:06.427Z,99979.69
2022-11-19T06:27:33.469Z,99983.81
2022-11-19T06:30:00.492Z,99980.34
2022-11-19T06:32:27.663Z,99975.59
2022-11-19T06:34:54.460Z,99983.63
2022-11-19T06:37:21.332Z,99980.53
2022-11-19T06:39:48.150Z,99972.94
2022-11-19T06:42:33.372Z,99971.03
2022-11-19T06:45:00.241Z,99970.03
2022-11-19T06:47:27.009Z,99979.50
2022-11-19T06:49:53.977Z,99982.97
2022-11-19T06:52:20.761Z,99974.75
2022-11-19T06:54:47.608Z,99987.91
2022-11-19T06:57:14.503Z,99986.25
2022-11-19T06:59:41.315Z,99992.03
2022-11-19T07:02:09.752Z,99990.78
2022-11-19T07:04:36.608Z,99992.63
2022-11-19T07:07:03.843Z,99993.88
2022-11-19T07:09:30.699Z,100002.88
2022-11-19T07:11:57.803Z,99996.56
2022-11-19T07:14:24.542Z,99991.97
2022-11-19T07:16:51.706Z,99991.38
2022-11-19T07:19:19.706Z,99983.94
2022-11-19T07:21:46.689Z,99987.88
2022-11-19T07:24:16.831Z,99982.09
2022-11-19T07:26:44.262Z,99985.38
2022-11-19T07:29:13.233Z,99982.16
2022-11-19T07:31:40.032Z,99975.78
2022-11-19T07:34:07.854Z,99985.47
2022-11-19T07:36:34.963Z,99993.47
2022-11-19T07:39:01.818Z,99992.44
2022-11-19T07:41:47.161Z,99994.28
2022-11-19T07:44:13.963Z,99993.25
2022-11-19T07:46:41.269Z,99995.16
2022-11-19T07:49:08.109Z,99996.34
2022-11-19T07:51:34.851Z,99986.31
2022-11-19T07:54:01.729Z,99988.53
2022-11-19T07:56:28.613Z,99990.19
2022-11-19T07:58:56.430Z,99997.66
2022-11-19T08:01:24.295Z,99991.88
2022-11-19T08:03:56.226Z,99987.78
2022-11-19T08:06:25.683Z,99992.47
2022-11-19T08:08:52.779Z,100001.53
2022-11-19T08:11:19.832Z,100004.66
2022-11-19T08:13:46.553Z,100009.56
2022-11-19T08:16:38.847Z,100005.84
2022-11-19T08:19:07.813Z,100012.06
2022-11-19T08:21:34.690Z,100025.19
2022-11-19T08:24:01.794Z,100023.53
2022-11-19T08:26:28.856Z,100027.44
2022-11-19T08:28:55.601Z,100023.41
2022-11-19T08:31:22.494Z,100021.59
2022-11-19T08:33:49.302Z,100021.63
2022-11-19T08:36:16.080Z,100015.69
2022-11-19T08:38:42.844Z,100033.53
2022-11-19T08:41:28.059Z,100034.13
2022-11-19T08:43:54.881Z,100040.50
2022-11-19T08:46:21.731Z,100032.91
2022-11-19T08:48:48.563Z,100040.94
2022-11-19T08:51:16.608Z,100036.84
2022-11-19T08:53:43.465Z,100041.38
2022-11-19T08:56:15.271Z,100042.19
2022-11-19T08:58:45.351Z,100041.16
2022-11-19T09:01:13.445Z,100036.66
2022-11-19T09:03:40.318Z,100051.03
2022-11-19T09:06:07.540Z,100048.56
2022-11-19T09:08:35.146Z,100059.25
2022-11-19T09:11:13.806Z,100053.09
2022-11-19T09:13:40.878Z,100058.63
2022-11-19T09:16:08.546Z,100059.88
2022-11-19T09:18:39.099Z,100057.22
2022-11-19T09:21:07.478Z,100057.22
2022-11-19T09:23:34.416Z,100059.66
2022-11-19T09:26:03.977Z,100066.47
2022-11-19T09:28:31.588Z,100056.19
2022-11-19T09:31:04.779Z,100059.47
2022-11-19T09:33:33.707Z,100063.19
2022-11-19T09:36:00.508Z,100063.38
2022-11-19T09:38:27.633Z,100066.88
2022-11-19T09:40:55.846Z,100059.47
2022-11-19T09:43:30.731Z,100052.69
2022-11-19T09:46:06.715Z,100054.78
2022-11-19T09:48:37.824Z,100049.44
2022-11-19T09:51:14.744Z,100052.69
2022-11-19T09:53:58.437Z,100050.22
2022-11-19T09:56:30.152Z,100060.94
2022-11-19T09:58:57.736Z,100050.44
2022-11-19T10:01:25.748Z,100054.97
2022-11-19T10:03:54.619Z,100054.34
2022-11-19T10:06:39.338Z,100049.63
2022-11-19T10:09:28.291Z,100066.66
2022-11-19T10:12:04.348Z,100058.25
2022-11-19T10:14:54.339Z,100066.44
2022-11-19T10:17:48.709Z,100055.13
2022-11-19T10:20:31.692Z,100048.34
2022-11-19T10:23:04.460Z,100042.16
2022-11-19T10:25:39.866Z,100045.03
2022-11-19T10:28:18.765Z,100050.38
2022-11-19T10:31:07.320Z,100045.03
2022-11-19T10:33:38.009Z,100039.47
2022-11-19T10:36:18.462Z,100041.34
2022-11-19T10:39:03.957Z,100043.59
2022-11-19T10:41:48.334Z,100034.34
2022-11-19T10:44:42.382Z,100047.28
2022-11-19T10:47:15.306Z,100032.88
2022-11-19T10:49:42.836Z,100031.84
2022-11-19T10:52:29.540Z,100029.19
2022-11-19T10:55:01.035Z,100032.88
2022-11-19T10:57:30.488Z,100033.50
2022-11-19T10:59:57.586Z,100028.41
2022-11-19T11:02:49.315Z,100017.03
2022-11-19T11:05:18.028Z,100017.25
2022-11-19T11:07:52.750Z,100010.84
2022-11-19T11:10:42.765Z,100006.16
2022-11-19T11:13:47.227Z,100005.94
2022-11-19T11:16:17.593Z,100014.13
2022-11-19T11:18:45.795Z,100000.56
2022-11-19T11:21:36.530Z,100006.50
2022-11-19T11:24:04.675Z,100000.31
2022-11-19T11:26:33.917Z,100003.22
2022-11-19T11:29:14.826Z,100008.78
2022-11-19T11:31:46.904Z,99999.09
2022-11-19T11:34:38.596Z,99997.22
2022-11-19T11:37:08.800Z,99982.00
2022-11-19T11:39:38.099Z,99988.59
2022-11-19T11:42:06.971Z,99981.59
2022-11-19T11:44:36.118Z,99985.44
2022-11-19T11:47:05.215Z,99980.31
2022-11-19T11:49:35.762Z,99985.28
2022-11-19T11:52:13.527Z,99980.50
2022-11-19T11:54:59.648Z,99995.91
2022-11-19T11:57:35.049Z,99982.16
2022-11-19T12:00:04.852Z,99984.22
2022-11-19T12:02:33.834Z,99972.50
2022-11-19T12:05:06.379Z,99966.13
2022-11-19T12:07:36.007Z,99968.19
2022-11-19T12:10:14.112Z,99968.34
2022-11-19T12:13:15.924Z,99975.34
2022-11-19T12:15:59.133Z,99959.19
2022-11-19T12:18:44.996Z,99963.88
2022-11-19T12:21:20.440Z,99955.47
2022-11-19T12:24:02.731Z,99955.63
2022-11-19T12:26:51.177Z,99940.56
2022-11-19T12:29:18.099Z,99946.75
2022-11-19T12:32:07.488Z,99939.13
2022-11-19T12:35:00.441Z,99938.91
2022-11-19T12:37:54.829Z,99940.13
2022-11-19T12:40:45.541Z,99928.16
2022-11-19T12:43:42.698Z,99925.69
2022-11-19T12:46:15.277Z,99919.88
2022-11-19T12:49:20.851Z,99915.81
2022-11-19T12:52:15.612Z,99924.44
2022-11-19T12:54:44.535Z,99915.13
2022-11-19T12:57:35.490Z,99908.53
2022-11-19T13:00:19.331Z,99906.53
2022-11-19T13:03:17.241Z,99917.81
2022-11-19T13:05:53.017Z,99897.00
2022-11-19T13:08:41.356Z,99903.47
2022-11-19T13:11:45.479Z,99902.81
2022-11-19T13:14:38.631Z,99895.59
2022-11-19T13:17:07.422Z,99893.97
2022-11-19T13:19:36.943Z,99897.06
2022-11-19T13:22:13.310Z,99894.41
2022-11-19T13:24:44.221Z,99896.44
2022-11-19T13:27:18.824Z,99887.66
2022-11-19T13:30:07.304Z,99889.97
2022-11-19T13:33:01.178Z,99894.44
2022-11-19T13:35:58.403Z,99883.13
2022-11-19T13:38:49.024Z,99882.66
2022-11-19T13:41:23.502Z,99879.31
2022-11-19T13:44:08.909Z,99881.78
2022-11-19T13:46:44.841Z,99880.00
2022-11-19T13:49:24.239Z,99883.03
2022-11-19T13:51:55.579Z,99874.44
2022-11-19T13:54:29.775Z,99868.47
2022-11-19T13:56:57.407Z,99863.97
2022-11-19T13:59:25.534Z,99871.38
2022-11-19T14:02:18.657Z,99858.75
2022-11-19T14:05:15.669Z,99860.66
2022-11-19T14:08:00.435Z,99858.59
2022-11-19T14:10:27.286Z,99849.09
2022-11-19T14:13:06.881Z,99847.06
2022-11-19T14:15:52.336Z,99840.47
2022-11-19T14:18:40.499Z,99839.88
2022-11-19T14:21:44.161Z,99834.28
2022-11-19T14:24:49.960Z,99835.13
2022-11-19T14:27:29.258Z,99830.50
2022-11-19T14:30:00.615Z,99824.34
2022-11-19T14:32:48.698Z,99816.91
2022-11-19T14:35:27.559Z,99825.97
2022-11-19T14:37:57.581Z,99824.88
2022-11-19T14:40:29.021Z,99817.50
2022-11-19T14:43:20.455Z,99815.88
2022-11-19T14:46:03.142Z,99814.31
2022-11-19T14:48:36.126Z,99807.09
2022-11-19T14:51:30.713Z,99800.34
2022-11-19T14:54:15.809Z,99802.78
2022-11-19T14:56:45.793Z,99807.53
2022-11-19T14:59:15.661Z,99805.31
2022-11-19T15:02:02.070Z,99792.94
2022-11-19T15:04:44.697Z,99793.13
2022-11-19T15:07:14.406Z,99792.34
2022-11-19T15:10:03.219Z,99802.91
2022-11-19T15:12:45.608Z,99802.75
2022-11-19T15:15:22.503Z,99806.28
2022-11-19T15:18:15.476Z,99792.53
2022-11-19T15:21:16.579Z,99804.50
2022-11-19T15:24:20.973Z,99791.06
2022-11-19T15:27:11.394Z,99773.81
2022-11-19T15:29:50.313Z,99774.94
2022-11-19T15:32:31.113Z,99775.53
2022-11-19T15:35:16.173Z,99752.28
2022-11-19T15:37:49.784Z,99767.50
2022-11-19T15:40:20.125Z,99762.56
2022-11-19T15:42:54.680Z,99766.84
2022-11-19T15:45:23.692Z,99758.81
2022-11-19T15:48:04.134Z,99762.09
2022-11-19T15:50:31.835Z,99762.91
2022-11-19T15:53:01.224Z,99758.66
2022-11-19T15:55:31.191Z,99755.44
2022-11-19T15:58:04.048Z,99757.28
2022-11-19T16:00:31.103Z,99754.91
2022-11-19T16:02:58.763Z,99754.31
2022-11-19T16:05:30.302Z,99757.59
2022-11-19T16:08:00.132Z,99752.69
2022-11-19T16:10:32.249Z,99756.63
2022-11-19T16:13:20.174Z,99753.81
2022-11-19T16:16:12.868Z,99761.41
2022-11-19T16:18:47.822Z,99760.19
2022-11-19T16:21:20.175Z,99749.53
2022-11-19T16:24:07.680Z,99744.31
2022-11-19T16:26:43.782Z,99742.84
2022-11-19T16:29:20.183Z,99739.13
2022-11-19T16:31:50.086Z,99748.47
2022-11-19T16:34:25.772Z,99736.13
2022-11-19T16:36:53.338Z,99737.06
2022-11-19T16:39:25.650Z,99731.81
2022-11-19T16:42:16.152Z,99733.13
2022-11-19T16:44:48.728Z,99731.72
2022-11-19T16:47:22.245Z,99731.19
2022-11-19T16:49:49.101Z,99729.34
2022-11-19T16:52:39.771Z,99725.16
2022-11-19T16:55:26.537Z,99722.53
2022-11-19T16:58:20.147Z,99707.06
2022-11-19T17:00:50.862Z,99711.16
2022-11-19T17:03:24.035Z,99711.28
2022-11-19T17:05:52.519Z,99722.63
2022-11-19T17:08:26.050Z,99707.44
2022-11-19T17:11:43.601Z,99696.22
2022-11-19T17:14:28.262Z,99685.75
2022-11-19T17:16:55.095Z,99689.16
2022-11-19T17:19:34.907Z,99690.59
2022-11-19T17:22:02.164Z,99687.09
2022-11-19T17:24:41.674Z,99687.88
2022-11-19T17:27:24.549Z,99675.78
2022-11-19T17:29:55.921Z,99679.66
2022-11-19T17:32:22.814Z,99683.69
2022-11-19T17:34:55.195Z,99685.91
2022-11-19T17:37:22.113Z,99662.44
2022-11-19T17:39:48.986Z,99660.13
2022-11-19T17:42:34.407Z,99665.47
2022-11-19T17:45:04.722Z,99664.38
2022-11-19T17:47:34.536Z,99663.16
2022-11-19T17:50:01.372Z,99659.91
2022-11-19T17:52:30.397Z,99659.97
2022-11-19T17:54:59.259Z,99656.25
2022-11-19T17:57:26.171Z,99652.78
2022-11-19T17:59:53.174Z,99656.03
2022-11-19T18:02:21.166Z,99662.06
2022-11-19T18:04:48.822Z,99655.31
2022-11-19T18:07:15.817Z,99652.47
2022-11-19T18:09:42.846Z,99644.00
2022-11-19T18:12:19.215Z,99640.13
2022-11-19T18:14:46.815Z,99640.13
2022-11-19T18:17:14.716Z,99632.34
2022-11-19T18:19:41.706Z,99632.19
2022-11-19T18:22:17.012Z,99634.88
2022-11-19T18:24:44.350Z,99627.06
2022-11-19T18:27:11.135Z,99623.72
2022-11-19T18:29:38.184Z,99625.59
2022-11-19T18:32:05.245Z,99628.75
2022-11-19T18:34:32.522Z,99626.50
2022-11-19T18:36:59.409Z,99620.97
2022-11-19T18:39:26.416Z,99624.41
2022-11-19T18:41:53.284Z,99624.69
2022-11-19T18:44:35.444Z,99613.72
2022-11-19T18:47:05.349Z,99617.66
2022-11-19T18:49:34.531Z,99610.94
2022-11-19T18:52:02.550Z,99602.34
2022-11-19T18:54:29.425Z,99604.56
2022-11-19T18:56:56.232Z,99608.88
2022-11-19T18:59:23.618Z,99606.06
2022-11-19T19:01:52.189Z,99610.13
2022-11-19T19:04:19.273Z,99612.13
2022-11-19T19:06:46.313Z,99600.41
2022-11-19T19:09:19.639Z,99604.34
2022-11-19T19:12:12.287Z,99605.59
2022-11-19T19:14:40.237Z,99599.09
2022-11-19T19:17:07.068Z,99600.72
2022-11-19T19:19:34.027Z,99604.34
2022-11-19T19:22:01.049Z,99595.50
2022-11-19T19:24:28.126Z,99585.03
2022-11-19T19:26:54.913Z,99582.66
2022-11-19T19:29:22.303Z,99586.31
2022-11-19T19:31:49.245Z,99585.03
2022-11-19T19:34:16.854Z,99579.78
2022-11-19T19:36:47.627Z,99582.13
2022-11-19T19:39:17.313Z,99578.72
2022-11-19T19:41:44.083Z,99578.06
2022-11-19T19:44:11.121Z,99574.78
2022-11-19T19:46:38.099Z,99567.41
2022-11-19T19:49:05.040Z,99559.41
2022-11-19T19:51:32.843Z,99550.78
2022-11-19T19:54:00.171Z,99544.28
2022-11-19T19:56:32.288Z,99549.75
2022-11-19T19:59:00.252Z,99539.28
2022-11-19T20:01:29.542Z,99549.38
2022-11-19T20:04:06.970Z,99546.78
2022-11-19T20:06:35.412Z,99542.13
2022-11-19T20:09:08.174Z,99540.03
2022-11-19T20:11:48.631Z,99542.63
2022-11-19T20:14:16.381Z,99544.13
2022-11-19T20:16:43.270Z,99534.53
2022-11-19T20:19:14.132Z,99530.69
2022-11-19T20:21:41.209Z,99523.94
2022-11-19T20:24:12.235Z,99533.56
2022-11-19T20:26:40.320Z,99524.44
2022-11-19T20:29:07.585Z,99518.72
2022-11-19T20:31:35.074Z,99517.47
2022-11-19T20:34:04.189Z,99523.63
2022-11-19T20:36:33.434Z,99517.25
2022-11-19T20:39:00.482Z,99514.28
2022-11-19T20:41:46.993Z,99509.28
2022-11-19T20:44:22.414Z,99515.91
2022-11-19T20:46:52.109Z,99507.44
2022-11-19T20:49:21.416Z,99509.06
2022-11-19T20:51:48.884Z,99509.00
2022-11-19T20:54:16.541Z,99504.94
2022-11-19T20:56:44.165Z,99501.22
2022-11-19T20:59:12.294Z,99493.03
2022-11-19T21:01:39.501Z,99490.94
2022-11-19T21:04:07.049Z,99491.56
2022-11-19T21:06:33.854Z,99493.25
2022-11-19T21:09:00.769Z,99496.44
2022-11-19T21:11:27.710Z,99504.09
2022-11-19T21:13:54.570Z,99496.97
2022-11-19T21:16:23.743Z,99493.63
2022-11-19T21:18:51.015Z,99485.97
2022-11-19T21:21:19.617Z,99481.28
2022-11-19T21:23:46.799Z,99471.19
2022-11-19T21:26:19.919Z,99467.63
2022-11-19T21:28:49.745Z,99475.53
2022-11-19T21:31:18.154Z,99478.38
2022-11-19T21:33:45.922Z,99471.19
2022-11-19T21:36:13.478Z,99454.66
2022-11-19T21:38:40.612Z,99469.28
2022-11-19T21:41:07.662Z,99456.00
2022-11-19T21:43:35.362Z,99468.84
2022-11-19T21:46:02.246Z,99457.56
2022-11-19T21:48:28.987Z,99448.56
2022-11-19T21:50:55.773Z,99435.88
2022-11-19T21:53:22.545Z,99426.47
2022-11-19T21:55:49.500Z,99434.63
2022-11-19T21:58:16.838Z,99436.63
2022-11-19T22:00:46.813Z,99425.50
2022-11-19T22:03:14.498Z,99424.97
2022-11-19T22:05:41.836Z,99427.56
2022-11-19T22:08:08.682Z,99420.16
2022-11-19T22:10:35.460Z,99424.91
2022-11-19T22:13:02.427Z,99416.88
2022-11-19T22:15:29.237Z,99415.16
2022-11-19T22:17:56.437Z,99411.22
2022-11-19T22:20:25.310Z,99411.13
2022-11-19T22:22:52.126Z,99412.66
2022-11-19T22:25:18.945Z,99399.75
2022-11-19T22:27:45.771Z,99398.00
2022-11-19T22:30:12.901Z,99399.41
2022-11-19T22:32:39.711Z,99400.59
2022-11-19T22:35:07.084Z,99392.56
2022-11-19T22:37:33.907Z,99400.72
2022-11-19T22:40:00.688Z,99393.03
2022-11-19T22:42:27.514Z,99393.19
2022-11-19T22:44:54.482Z,99386.09
2022-11-19T22:47:21.356Z,99374.81
2022-11-19T22:49:48.147Z,99381.69
2022-11-19T22:52:16.191Z,99373.44
2022-11-19T22:54:43.851Z,99372.84
2022-11-19T22:57:11.446Z,99362.22
2022-11-19T22:59:38.260Z,99360.38
2022-11-19T23:02:05.096Z,99361.34
2022-11-19T23:04:31.941Z,99346.19
2022-11-19T23:06:58.797Z,99354.78
2022-11-19T23:09:25.767Z,99352.59
2022-11-19T23:12:11.075Z,99347.94
2022-11-19T23:14:38.082Z,99345.38
2022-11-19T23:17:04.841Z,99340.72
2022-11-19T23:19:31.663Z,99342.34
2022-11-19T23:21:58.648Z,99337.00
2022-11-19T23:24:25.580Z,99335.16
2022-11-19T23:26:52.468Z,99332.34
2022-11-19T23:29:20.093Z,99332.72
2022-11-19T23:31:47.133Z,99327.69
2022-11-19T23:34:14.027Z,99325.72
2022-11-19T23:36:41.545Z,99326.31
2022-11-19T23:39:13.893Z,99329.81
2022-11-19T23:41:40.753Z,99316.44
2022-11-19T23:44:07.788Z,99313.41
2022-11-19T23:46:36.063Z,99323.28
2022-11-19T23:49:03.575Z,99310.06
2022-11-19T23:51:35.768Z,99304.94
2022-11-19T23:54:03.486Z,99305.03
2022-11-19T23:56:32.309Z,99303.63
2022-11-19T23:59:00.839Z,99307.13
